Kahuku, Hawaii
Current Conditions -  °F | °C
As of 11:58 PM on Sunday 21 Dec 2014 (Local Time) from PHHI Reporting Station
Few Clouds Few Clouds  
Wind Chill: 67°   Ceiling: Unl
Heat Index: 67°   Visibility: 10mi
Dew Point: 64°   Wind: 8mph
Humidity: 90%   Direction: 310°NW
Pressure: 30.03"   Gusts: NA
Location:  21.67°N, 157.94°W
Report Text: PHHI 220958Z AUTO 31007KT 10SM FEW050 19/18 A3003 RMK AO2 SLP160 T01940178 402730180 $
Loading
Personal Weather Stations






























Interactive Weather Map New forecast layout! Learn more

10-Day Weather Forecast

Advertisements
Track Severe Weather on mobile